sensor_id;sensor_type;location;lat;lon;timestamp;pressure;altitude;pressure_sealevel;temperature;humidity
14242;BME280;7205;50.864;12.766;2023-06-26T00:00:49;97659.38;;;19.40;77.90
14242;BME280;7205;50.864;12.766;2023-06-26T00:03:15;97665.78;;;19.39;78.06
14242;BME280;7205;50.864;12.766;2023-06-26T00:05:42;97665.19;;;19.37;78.25
14242;BME280;7205;50.864;12.766;2023-06-26T00:08:09;97666.47;;;19.34;78.46
14242;BME280;7205;50.864;12.766;2023-06-26T00:10:36;97653.53;;;19.31;78.40
14242;BME280;7205;50.864;12.766;2023-06-26T00:13:02;97652.94;;;19.29;78.64
14242;BME280;7205;50.864;12.766;2023-06-26T00:15:31;97656.06;;;19.26;78.74
14242;BME280;7205;50.864;12.766;2023-06-26T00:17:57;97658.13;;;19.24;78.95
14242;BME280;7205;50.864;12.766;2023-06-26T00:20:24;97661.88;;;19.23;79.13
14242;BME280;7205;50.864;12.766;2023-06-26T00:22:51;97655.91;;;19.21;79.27
14242;BME280;7205;50.864;12.766;2023-06-26T00:25:19;97650.19;;;19.18;79.37
14242;BME280;7205;50.864;12.766;2023-06-26T00:27:46;97646.72;;;19.17;79.56
14242;BME280;7205;50.864;12.766;2023-06-26T00:30:13;97646.72;;;19.17;79.70
14242;BME280;7205;50.864;12.766;2023-06-26T00:32:41;97646.59;;;19.12;79.76
14242;BME280;7205;50.864;12.766;2023-06-26T00:35:08;97646.81;;;19.11;79.71
14242;BME280;7205;50.864;12.766;2023-06-26T00:37:35;97647.84;;;19.10;79.91
14242;BME280;7205;50.864;12.766;2023-06-26T00:40:03;97643.78;;;19.07;80.08
14242;BME280;7205;50.864;12.766;2023-06-26T00:42:32;97644.81;;;19.06;80.18
14242;BME280;7205;50.864;12.766;2023-06-26T00:44:58;97638.06;;;19.04;80.16
14242;BME280;7205;50.864;12.766;2023-06-26T00:47:26;97642.84;;;19.02;80.24
14242;BME280;7205;50.864;12.766;2023-06-26T00:49:55;97637.72;;;19.00;80.47
14242;BME280;7205;50.864;12.766;2023-06-26T00:52:22;97640.63;;;18.99;80.70
14242;BME280;7205;50.864;12.766;2023-06-26T00:54:50;97646.22;;;18.97;80.79
14242;BME280;7205;50.864;12.766;2023-06-26T00:57:17;97640.25;;;18.95;81.17
14242;BME280;7205;50.864;12.766;2023-06-26T00:59:44;97642.94;;;18.95;81.07
14242;BME280;7205;50.864;12.766;2023-06-26T01:02:11;97636.53;;;18.96;81.43
14242;BME280;7205;50.864;12.766;2023-06-26T01:04:43;97640.63;;;18.99;81.68
14242;BME280;7205;50.864;12.766;2023-06-26T01:07:14;97640.97;;;19.02;81.51
14242;BME280;7205;50.864;12.766;2023-06-26T01:09:42;97637.03;;;19.05;81.73
14242;BME280;7205;50.864;12.766;2023-06-26T01:12:09;97632.50;;;19.05;81.53
14242;BME280;7205;50.864;12.766;2023-06-26T01:14:35;97636.56;;;19.08;81.60
14242;BME280;7205;50.864;12.766;2023-06-26T01:17:04;97627.50;;;19.09;81.49
14242;BME280;7205;50.864;12.766;2023-06-26T01:19:31;97629.13;;;19.10;81.51
14242;BME280;7205;50.864;12.766;2023-06-26T01:22:02;97623.53;;;19.11;81.31
14242;BME280;7205;50.864;12.766;2023-06-26T01:24:50;97623.53;;;19.11;81.31
14242;BME280;7205;50.864;12.766;2023-06-26T01:27:22;97623.06;;;19.14;81.38
14242;BME280;7205;50.864;12.766;2023-06-26T01:29:49;97624.50;;;19.17;81.36
14242;BME280;7205;50.864;12.766;2023-06-26T01:32:18;97617.03;;;19.19;81.20
14242;BME280;7205;50.864;12.766;2023-06-26T01:34:45;97611.47;;;19.20;81.07
14242;BME280;7205;50.864;12.766;2023-06-26T01:37:12;97611.22;;;19.22;80.98
14242;BME280;7205;50.864;12.766;2023-06-26T01:39:39;97609.38;;;19.22;80.82
14242;BME280;7205;50.864;12.766;2023-06-26T01:42:06;97606.69;;;19.22;80.80
14242;BME280;7205;50.864;12.766;2023-06-26T01:44:42;97610.63;;;19.20;80.62
14242;BME280;7205;50.864;12.766;2023-06-26T01:47:11;97602.00;;;19.18;80.57
14242;BME280;7205;50.864;12.766;2023-06-26T01:49:47;97600.84;;;19.14;80.50
14242;BME280;7205;50.864;12.766;2023-06-26T01:52:20;97599.44;;;19.11;80.55
14242;BME280;7205;50.864;12.766;2023-06-26T01:54:56;97599.31;;;19.06;80.40
14242;BME280;7205;50.864;12.766;2023-06-26T01:57:26;97586.63;;;19.02;80.58
14242;BME280;7205;50.864;12.766;2023-06-26T01:59:55;97587.09;;;18.99;80.55
14242;BME280;7205;50.864;12.766;2023-06-26T02:02:25;97591.25;;;18.95;80.74
14242;BME280;7205;50.864;12.766;2023-06-26T02:04:52;97590.31;;;18.89;80.95
14242;BME280;7205;50.864;12.766;2023-06-26T02:07:19;97581.13;;;18.85;80.92
14242;BME280;7205;50.864;12.766;2023-06-26T02:09:46;97579.94;;;18.81;81.07
14242;BME280;7205;50.864;12.766;2023-06-26T02:12:12;97584.91;;;18.77;81.22
14242;BME280;7205;50.864;12.766;2023-06-26T02:14:39;97582.69;;;18.74;81.37
14242;BME280;7205;50.864;12.766;2023-06-26T02:17:07;97581.50;;;18.70;81.36
14242;BME280;7205;50.864;12.766;2023-06-26T02:19:34;97583.03;;;18.66;81.68
14242;BME280;7205;50.864;12.766;2023-06-26T02:22:01;97584.53;;;18.62;81.69
14242;BME280;7205;50.864;12.766;2023-06-26T02:24:28;97586.41;;;18.62;81.95
14242;BME280;7205;50.864;12.766;2023-06-26T02:26:57;97588.72;;;18.58;82.07
14242;BME280;7205;50.864;12.766;2023-06-26T02:29:24;97595.53;;;18.54;82.50
14242;BME280;7205;50.864;12.766;2023-06-26T02:31:51;97591.69;;;18.50;82.58
14242;BME280;7205;50.864;12.766;2023-06-26T02:34:19;97590.28;;;18.48;82.91
14242;BME280;7205;50.864;12.766;2023-06-26T02:36:46;97587.25;;;18.44;83.07
14242;BME280;7205;50.864;12.766;2023-06-26T02:39:13;97592.00;;;18.42;83.40
14242;BME280;7205;50.864;12.766;2023-06-26T02:41:40;97591.41;;;18.40;83.52
14242;BME280;7205;50.864;12.766;2023-06-26T02:44:09;97588.34;;;18.37;83.76
14242;BME280;7205;50.864;12.766;2023-06-26T02:46:37;97587.75;;;18.35;84.01
14242;BME280;7205;50.864;12.766;2023-06-26T02:49:04;97596.00;;;18.33;84.09
14242;BME280;7205;50.864;12.766;2023-06-26T02:51:33;97589.22;;;18.31;84.19
14242;BME280;7205;50.864;12.766;2023-06-26T02:54:05;97584.34;;;18.28;84.54
14242;BME280;7205;50.864;12.766;2023-06-26T02:56:32;97584.56;;;18.26;84.81
14242;BME280;7205;50.864;12.766;2023-06-26T02:58:59;97582.91;;;18.25;84.87
14242;BME280;7205;50.864;12.766;2023-06-26T03:01:27;97584.81;;;18.25;85.13
14242;BME280;7205;50.864;12.766;2023-06-26T03:03:54;97583.59;;;18.21;85.44
14242;BME280;7205;50.864;12.766;2023-06-26T03:06:21;97576.41;;;18.21;85.57
14242;BME280;7205;50.864;12.766;2023-06-26T03:08:50;97577.22;;;18.22;85.87
14242;BME280;7205;50.864;12.766;2023-06-26T03:11:16;97582.34;;;18.23;85.99
14242;BME280;7205;50.864;12.766;2023-06-26T03:13:44;97576.78;;;18.25;86.22
14242;BME280;7205;50.864;12.766;2023-06-26T03:16:11;97573.88;;;18.26;86.33
14242;BME280;7205;50.864;12.766;2023-06-26T03:18:38;97577.16;;;18.28;86.67
14242;BME280;7205;50.864;12.766;2023-06-26T03:21:05;97584.03;;;18.36;87.17
14242;BME280;7205;50.864;12.766;2023-06-26T03:23:32;97576.91;;;18.48;87.81
14242;BME280;7205;50.864;12.766;2023-06-26T03:26:00;97577.31;;;18.63;87.94
14242;BME280;7205;50.864;12.766;2023-06-26T03:28:30;97571.19;;;18.74;87.96
14242;BME280;7205;50.864;12.766;2023-06-26T03:30:57;97569.94;;;18.88;87.65
14242;BME280;7205;50.864;12.766;2023-06-26T03:33:25;97572.88;;;18.98;87.30
14242;BME280;7205;50.864;12.766;2023-06-26T03:35:53;97569.63;;;19.08;86.82
14242;BME280;7205;50.864;12.766;2023-06-26T03:38:21;97565.34;;;19.18;86.11
14242;BME280;7205;50.864;12.766;2023-06-26T03:40:51;97570.94;;;19.28;86.01
14242;BME280;7205;50.864;12.766;2023-06-26T03:43:19;97567.94;;;19.36;85.28
14242;BME280;7205;50.864;12.766;2023-06-26T03:46:11;97565.75;;;19.45;84.87
14242;BME280;7205;50.864;12.766;2023-06-26T03:48:39;97564.81;;;19.51;84.56
14242;BME280;7205;50.864;12.766;2023-06-26T03:51:07;97557.22;;;19.59;84.06
14242;BME280;7205;50.864;12.766;2023-06-26T03:53:33;97567.03;;;19.65;83.77
14242;BME280;7205;50.864;12.766;2023-06-26T03:56:00;97555.84;;;19.68;83.24
14242;BME280;7205;50.864;12.766;2023-06-26T03:58:28;97560.25;;;19.74;82.85
14242;BME280;7205;50.864;12.766;2023-06-26T04:00:55;97554.75;;;19.81;82.71
14242;BME280;7205;50.864;12.766;2023-06-26T04:03:23;97553.00;;;19.86;82.45
14242;BME280;7205;50.864;12.766;2023-06-26T04:05:50;97552.63;;;19.94;82.19
14242;BME280;7205;50.864;12.766;2023-06-26T04:08:17;97553.34;;;20.02;81.77
14242;BME280;7205;50.864;12.766;2023-06-26T04:10:46;97558.31;;;20.10;81.41
14242;BME280;7205;50.864;12.766;2023-06-26T04:13:13;97547.69;;;20.15;81.26
14242;BME280;7205;50.864;12.766;2023-06-26T04:15:42;97551.69;;;20.24;80.94
14242;BME280;7205;50.864;12.766;2023-06-26T04:18:08;97547.78;;;20.31;80.78
14242;BME280;7205;50.864;12.766;2023-06-26T04:20:38;97553.81;;;20.38;80.19
14242;BME280;7205;50.864;12.766;2023-06-26T04:23:06;97545.41;;;20.46;79.99
14242;BME280;7205;50.864;12.766;2023-06-26T04:25:32;97547.72;;;20.54;79.88
14242;BME280;7205;50.864;12.766;2023-06-26T04:27:59;97544.63;;;20.62;80.15
14242;BME280;7205;50.864;12.766;2023-06-26T04:30:26;97540.97;;;20.68;80.10
14242;BME280;7205;50.864;12.766;2023-06-26T04:32:54;97545.97;;;20.76;79.80
14242;BME280;7205;50.864;12.766;2023-06-26T04:35:24;97538.03;;;20.81;79.73
14242;BME280;7205;50.864;12.766;2023-06-26T04:37:51;97537.84;;;20.88;79.54
14242;BME280;7205;50.864;12.766;2023-06-26T04:40:17;97546.78;;;20.93;79.31
14242;BME280;7205;50.864;12.766;2023-06-26T04:42:44;97538.84;;;20.98;79.34
14242;BME280;7205;50.864;12.766;2023-06-26T04:45:11;97542.44;;;21.04;79.26
14242;BME280;7205;50.864;12.766;2023-06-26T04:47:38;97536.91;;;21.10;79.16
14242;BME280;7205;50.864;12.766;2023-06-26T04:50:07;97535.38;;;21.14;78.50
14242;BME280;7205;50.864;12.766;2023-06-26T04:52:34;97534.63;;;21.19;78.36
14242;BME280;7205;50.864;12.766;2023-06-26T04:55:01;97534.13;;;21.22;78.02
14242;BME280;7205;50.864;12.766;2023-06-26T04:57:28;97531.53;;;21.27;77.94
14242;BME280;7205;50.864;12.766;2023-06-26T04:59:55;97532.44;;;21.33;78.10
14242;BME280;7205;50.864;12.766;2023-06-26T05:02:21;97537.88;;;21.38;77.68
14242;BME280;7205;50.864;12.766;2023-06-26T05:04:48;97531.50;;;21.44;77.39
14242;BME280;7205;50.864;12.766;2023-06-26T05:07:16;97526.22;;;21.49;77.18
14242;BME280;7205;50.864;12.766;2023-06-26T05:09:43;97532.22;;;21.56;77.06
14242;BME280;7205;50.864;12.766;2023-06-26T05:12:10;97520.50;;;21.62;76.86
14242;BME280;7205;50.864;12.766;2023-06-26T05:14:38;97520.31;;;21.68;75.89
14242;BME280;7205;50.864;12.766;2023-06-26T05:17:04;97521.19;;;21.74;75.07
14242;BME280;7205;50.864;12.766;2023-06-26T05:19:31;97513.78;;;21.81;74.43
14242;BME280;7205;50.864;12.766;2023-06-26T05:21:58;97513.34;;;21.89;73.12
14242;BME280;7205;50.864;12.766;2023-06-26T05:24:30;97505.91;;;21.96;72.22
14242;BME280;7205;50.864;12.766;2023-06-26T05:26:57;97505.72;;;22.02;71.31
14242;BME280;7205;50.864;12.766;2023-06-26T05:29:25;97503.66;;;22.09;70.71
14242;BME280;7205;50.864;12.766;2023-06-26T05:31:53;97507.53;;;22.18;70.36
14242;BME280;7205;50.864;12.766;2023-06-26T05:34:22;97503.84;;;22.24;69.11
14242;BME280;7205;50.864;12.766;2023-06-26T05:36:50;97506.06;;;22.32;68.35
14242;BME280;7205;50.864;12.766;2023-06-26T05:39:18;97500.50;;;22.39;67.01
14242;BME280;7205;50.864;12.766;2023-06-26T05:41:47;97503.78;;;22.46;65.84
14242;BME280;7205;50.864;12.766;2023-06-26T05:44:14;97500.69;;;22.54;64.95
14242;BME280;7205;50.864;12.766;2023-06-26T05:46:40;97501.03;;;22.63;64.42
14242;BME280;7205;50.864;12.766;2023-06-26T05:49:07;97495.44;;;22.69;63.55
14242;BME280;7205;50.864;12.766;2023-06-26T05:51:35;97496.03;;;22.76;62.06
14242;BME280;7205;50.864;12.766;2023-06-26T05:54:02;97495.56;;;22.84;61.51
14242;BME280;7205;50.864;12.766;2023-06-26T05:56:30;97496.19;;;22.91;60.84
14242;BME280;7205;50.864;12.766;2023-06-26T05:58:58;97491.94;;;23.00;60.38
14242;BME280;7205;50.864;12.766;2023-06-26T06:01:25;97493.34;;;23.08;59.59
14242;BME280;7205;50.864;12.766;2023-06-26T06:03:52;97486.41;;;23.17;58.90
14242;BME280;7205;50.864;12.766;2023-06-26T06:06:18;97488.88;;;23.23;58.43
14242;BME280;7205;50.864;12.766;2023-06-26T06:08:45;97486.81;;;23.30;57.47
14242;BME280;7205;50.864;12.766;2023-06-26T06:11:12;97484.44;;;23.39;57.05
14242;BME280;7205;50.864;12.766;2023-06-26T06:13:40;97491.22;;;23.46;56.76
14242;BME280;7205;50.864;12.766;2023-06-26T06:16:09;97485.59;;;23.53;56.70
14242;BME280;7205;50.864;12.766;2023-06-26T06:18:39;97488.06;;;23.59;55.97
14242;BME280;7205;50.864;12.766;2023-06-26T06:21:06;97487.03;;;23.66;55.47
14242;BME280;7205;50.864;12.766;2023-06-26T06:23:32;97491.91;;;23.74;54.90
14242;BME280;7205;50.864;12.766;2023-06-26T06:25:59;97486.28;;;23.80;54.74
14242;BME280;7205;50.864;12.766;2023-06-26T06:28:26;97489.81;;;23.86;53.89
14242;BME280;7205;50.864;12.766;2023-06-26T06:30:53;97491.72;;;23.90;53.13
14242;BME280;7205;50.864;12.766;2023-06-26T06:33:21;97492.56;;;23.96;52.69
14242;BME280;7205;50.864;12.766;2023-06-26T06:35:47;97484.53;;;24.01;52.48
14242;BME280;7205;50.864;12.766;2023-06-26T06:38:14;97494.25;;;24.07;52.08
14242;BME280;7205;50.864;12.766;2023-06-26T06:40:41;97497.78;;;24.12;51.75
14242;BME280;7205;50.864;12.766;2023-06-26T06:43:08;97495.94;;;24.18;51.58
14242;BME280;7205;50.864;12.766;2023-06-26T06:45:34;97493.25;;;24.23;51.34
14242;BME280;7205;50.864;12.766;2023-06-26T06:48:03;97497.00;;;24.27;50.84
14242;BME280;7205;50.864;12.766;2023-06-26T06:50:31;97493.78;;;24.30;50.78
14242;BME280;7205;50.864;12.766;2023-06-26T06:52:58;97491.38;;;24.33;50.50
14242;BME280;7205;50.864;12.766;2023-06-26T06:55:25;97498.69;;;24.38;50.05
14242;BME280;7205;50.864;12.766;2023-06-26T06:57:51;97493.03;;;24.44;50.21
14242;BME280;7205;50.864;12.766;2023-06-26T07:00:18;97494.91;;;24.49;50.25
14242;BME280;7205;50.864;12.766;2023-06-26T07:02:45;97487.66;;;24.54;50.15
14242;BME280;7205;50.864;12.766;2023-06-26T07:05:12;97488.44;;;24.60;50.35
14242;BME280;7205;50.864;12.766;2023-06-26T07:07:40;97485.75;;;24.65;50.36
14242;BME280;7205;50.864;12.766;2023-06-26T07:10:10;97481.47;;;24.69;50.16
14242;BME280;7205;50.864;12.766;2023-06-26T07:12:37;97477.69;;;24.75;50.47
14242;BME280;7205;50.864;12.766;2023-06-26T07:15:05;97474.75;;;24.82;50.72
14242;BME280;7205;50.864;12.766;2023-06-26T07:17:32;97478.50;;;24.86;50.74
14242;BME280;7205;50.864;12.766;2023-06-26T07:20:00;97473.13;;;24.91;50.79
14242;BME280;7205;50.864;12.766;2023-06-26T07:22:29;97474.22;;;24.95;50.68
14242;BME280;7205;50.864;12.766;2023-06-26T07:24:57;97472.56;;;24.99;50.69
14242;BME280;7205;50.864;12.766;2023-06-26T07:27:24;97474.47;;;25.03;50.99
14242;BME280;7205;50.864;12.766;2023-06-26T07:29:52;97471.50;;;25.10;50.75
14242;BME280;7205;50.864;12.766;2023-06-26T07:32:18;97474.19;;;25.15;50.53
14242;BME280;7205;50.864;12.766;2023-06-26T07:34:45;97476.06;;;25.19;50.17
14242;BME280;7205;50.864;12.766;2023-06-26T07:37:12;97480.66;;;25.24;49.60
14242;BME280;7205;50.864;12.766;2023-06-26T07:39:39;97471.75;;;25.28;49.33
14242;BME280;7205;50.864;12.766;2023-06-26T07:42:07;97473.34;;;25.34;49.52
14242;BME280;7205;50.864;12.766;2023-06-26T07:44:34;97474.19;;;25.40;49.02
14242;BME280;7205;50.864;12.766;2023-06-26T07:47:00;97469.84;;;25.44;48.67
14242;BME280;7205;50.864;12.766;2023-06-26T07:49:27;97463.91;;;25.47;48.03
14242;BME280;7205;50.864;12.766;2023-06-26T07:51:54;97471.47;;;25.50;47.43
14242;BME280;7205;50.864;12.766;2023-06-26T07:54:21;97464.69;;;25.52;47.24
14242;BME280;7205;50.864;12.766;2023-06-26T07:56:54;97471.44;;;25.55;47.39
14242;BME280;7205;50.864;12.766;2023-06-26T07:59:23;97469.28;;;25.62;47.88
14242;BME280;7205;50.864;12.766;2023-06-26T08:01:51;97465.75;;;25.66;47.50
14242;BME280;7205;50.864;12.766;2023-06-26T08:04:18;97465.44;;;25.73;46.97
14242;BME280;7205;50.864;12.766;2023-06-26T08:06:47;97463.00;;;25.76;46.98
14242;BME280;7205;50.864;12.766;2023-06-26T08:09:14;97463.53;;;25.83;47.17
14242;BME280;7205;50.864;12.766;2023-06-26T08:11:41;97458.88;;;25.89;47.06
14242;BME280;7205;50.864;12.766;2023-06-26T08:14:08;97464.53;;;25.92;46.62
14242;BME280;7205;50.864;12.766;2023-06-26T08:16:36;97461.81;;;25.97;45.39
14242;BME280;7205;50.864;12.766;2023-06-26T08:19:03;97457.75;;;26.00;45.49
14242;BME280;7205;50.864;12.766;2023-06-26T08:21:29;97458.84;;;26.04;45.21
14242;BME280;7205;50.864;12.766;2023-06-26T08:23:56;97461.28;;;26.11;45.21
14242;BME280;7205;50.864;12.766;2023-06-26T08:26:23;97451.50;;;26.15;45.44
14242;BME280;7205;50.864;12.766;2023-06-26T08:28:50;97463.94;;;26.21;45.88
14242;BME280;7205;50.864;12.766;2023-06-26T08:31:17;97450.34;;;26.26;45.36
14242;BME280;7205;50.864;12.766;2023-06-26T08:33:46;97457.63;;;26.30;44.75
14242;BME280;7205;50.864;12.766;2023-06-26T08:36:13;97458.16;;;26.32;44.99
14242;BME280;7205;50.864;12.766;2023-06-26T08:38:39;97451.38;;;26.35;44.58
14242;BME280;7205;50.864;12.766;2023-06-26T08:41:07;97450.03;;;26.37;44.52
14242;BME280;7205;50.864;12.766;2023-06-26T08:43:33;97453.47;;;26.43;44.66
14242;BME280;7205;50.864;12.766;2023-06-26T08:46:00;97453.44;;;26.48;44.55
14242;BME280;7205;50.864;12.766;2023-06-26T08:48:29;97455.63;;;26.51;43.85
14242;BME280;7205;50.864;12.766;2023-06-26T08:51:01;97456.94;;;26.53;43.58
14242;BME280;7205;50.864;12.766;2023-06-26T08:53:33;97457.19;;;26.57;43.18
14242;BME280;7205;50.864;12.766;2023-06-26T08:56:03;97458.50;;;26.59;42.91
14242;BME280;7205;50.864;12.766;2023-06-26T08:58:31;97450.63;;;26.63;42.99
14242;BME280;7205;50.864;12.766;2023-06-26T09:00:59;97450.34;;;26.64;42.81
14242;BME280;7205;50.864;12.766;2023-06-26T09:03:27;97450.63;;;26.68;42.43
14242;BME280;7205;50.864;12.766;2023-06-26T09:05:54;97451.16;;;26.70;42.63
14242;BME280;7205;50.864;12.766;2023-06-26T09:08:22;97448.69;;;26.73;42.04
14242;BME280;7205;50.864;12.766;2023-06-26T09:10:49;97445.41;;;26.76;42.15
14242;BME280;7205;50.864;12.766;2023-06-26T09:13:16;97450.50;;;26.83;42.19
14242;BME280;7205;50.864;12.766;2023-06-26T09:15:44;97449.69;;;26.87;42.46
14242;BME280;7205;50.864;12.766;2023-06-26T09:18:11;97449.66;;;26.92;42.11
14242;BME280;7205;50.864;12.766;2023-06-26T09:20:38;97441.75;;;26.96;41.82
14242;BME280;7205;50.864;12.766;2023-06-26T09:23:05;97454.44;;;27.00;41.22
14242;BME280;7205;50.864;12.766;2023-06-26T09:25:33;97449.28;;;27.04;41.28
14242;BME280;7205;50.864;12.766;2023-06-26T09:28:00;97447.59;;;27.08;41.43
14242;BME280;7205;50.864;12.766;2023-06-26T09:30:27;97443.47;;;27.15;41.94
14242;BME280;7205;50.864;12.766;2023-06-26T09:32:54;97439.59;;;27.22;41.69
14242;BME280;7205;50.864;12.766;2023-06-26T09:35:21;97444.19;;;27.26;41.07
14242;BME280;7205;50.864;12.766;2023-06-26T09:37:48;97446.88;;;27.31;40.45
14242;BME280;7205;50.864;12.766;2023-06-26T09:40:15;97441.66;;;27.35;40.44
14242;BME280;7205;50.864;12.766;2023-06-26T09:42:43;97437.59;;;27.37;40.65
14242;BME280;7205;50.864;12.766;2023-06-26T09:45:18;97436.19;;;27.40;40.73
14242;BME280;7205;50.864;12.766;2023-06-26T09:47:45;97436.13;;;27.45;40.75
14242;BME280;7205;50.864;12.766;2023-06-26T09:50:21;97437.75;;;27.46;40.45
14242;BME280;7205;50.864;12.766;2023-06-26T09:52:50;97433.38;;;27.50;40.60
14242;BME280;7205;50.864;12.766;2023-06-26T09:55:19;97437.94;;;27.54;39.89
14242;BME280;7205;50.864;12.766;2023-06-26T09:57:49;97430.81;;;27.58;40.05
14242;BME280;7205;50.864;12.766;2023-06-26T10:00:18;97427.28;;;27.63;40.34
14242;BME280;7205;50.864;12.766;2023-06-26T10:02:45;97422.84;;;27.67;40.69
14242;BME280;7205;50.864;12.766;2023-06-26T10:05:12;97423.63;;;27.72;39.97
14242;BME280;7205;50.864;12.766;2023-06-26T10:07:39;97411.66;;;27.73;38.97
14242;BME280;7205;50.864;12.766;2023-06-26T10:10:08;97424.16;;;27.74;38.76
14242;BME280;7205;50.864;12.766;2023-06-26T10:12:35;97413.28;;;27.74;38.86
14242;BME280;7205;50.864;12.766;2023-06-26T10:15:06;97420.03;;;27.77;38.86
14242;BME280;7205;50.864;12.766;2023-06-26T10:17:38;97408.88;;;27.78;38.24
14242;BME280;7205;50.864;12.766;2023-06-26T10:20:09;97412.63;;;27.82;38.08
14242;BME280;7205;50.864;12.766;2023-06-26T10:22:41;97405.81;;;27.85;38.30
14242;BME280;7205;50.864;12.766;2023-06-26T10:25:11;97404.94;;;27.89;38.25
14242;BME280;7205;50.864;12.766;2023-06-26T10:27:41;97411.72;;;27.92;37.80
14242;BME280;7205;50.864;12.766;2023-06-26T10:30:14;97399.78;;;27.93;37.77
14242;BME280;7205;50.864;12.766;2023-06-26T10:32:43;97398.38;;;27.95;36.92
14242;BME280;7205;50.864;12.766;2023-06-26T10:35:10;97395.88;;;27.99;37.07
14242;BME280;7205;50.864;12.766;2023-06-26T10:37:41;97392.88;;;28.00;37.02
14242;BME280;7205;50.864;12.766;2023-06-26T10:40:08;97390.09;;;28.05;37.35
14242;BME280;7205;50.864;12.766;2023-06-26T10:42:37;97397.09;;;28.11;37.05
14242;BME280;7205;50.864;12.766;2023-06-26T10:45:14;97397.56;;;28.13;36.49
14242;BME280;7205;50.864;12.766;2023-06-26T10:47:42;97389.88;;;28.20;37.38
14242;BME280;7205;50.864;12.766;2023-06-26T10:50:24;97389.56;;;28.22;36.60
14242;BME280;7205;50.864;12.766;2023-06-26T10:53:10;97387.38;;;28.24;35.70
14242;BME280;7205;50.864;12.766;2023-06-26T10:55:44;97385.41;;;28.29;35.61
14242;BME280;7205;50.864;12.766;2023-06-26T10:58:33;97389.13;;;28.33;35.75
14242;BME280;7205;50.864;12.766;2023-06-26T11:01:19;97380.63;;;28.40;35.37
14242;BME280;7205;50.864;12.766;2023-06-26T11:03:49;97381.56;;;28.49;35.76
14242;BME280;7205;50.864;12.766;2023-06-26T11:06:19;97378.78;;;28.54;35.06
14242;BME280;7205;50.864;12.766;2023-06-26T11:08:47;97377.41;;;28.57;35.39
14242;BME280;7205;50.864;12.766;2023-06-26T11:11:14;97364.50;;;28.62;35.42
14242;BME280;7205;50.864;12.766;2023-06-26T11:13:41;97374.75;;;28.70;36.37
14242;BME280;7205;50.864;12.766;2023-06-26T11:16:08;97368.63;;;28.78;36.46
14242;BME280;7205;50.864;12.766;2023-06-26T11:18:37;97371.75;;;28.85;35.60
14242;BME280;7205;50.864;12.766;2023-06-26T11:21:05;97367.31;;;28.89;35.75
14242;BME280;7205;50.864;12.766;2023-06-26T11:23:32;97372.66;;;28.94;35.46
14242;BME280;7205;50.864;12.766;2023-06-26T11:26:13;97368.66;;;28.92;35.46
14242;BME280;7205;50.864;12.766;2023-06-26T11:28:46;97368.88;;;28.95;35.72
14242;BME280;7205;50.864;12.766;2023-06-26T11:31:27;97366.31;;;28.99;36.53
14242;BME280;7205;50.864;12.766;2023-06-26T11:33:57;97358.28;;;29.07;35.61
14242;BME280;7205;50.864;12.766;2023-06-26T11:36:24;97359.84;;;29.13;35.95
14242;BME280;7205;50.864;12.766;2023-06-26T11:38:54;97357.34;;;29.17;35.76
14242;BME280;7205;50.864;12.766;2023-06-26T11:41:22;97344.22;;;29.19;35.34
14242;BME280;7205;50.864;12.766;2023-06-26T11:43:49;97342.00;;;29.21;35.14
14242;BME280;7205;50.864;12.766;2023-06-26T11:46:18;97340.59;;;29.23;35.64
14242;BME280;7205;50.864;12.766;2023-06-26T11:48:44;97341.59;;;29.27;35.30
14242;BME280;7205;50.864;12.766;2023-06-26T11:51:14;97332.56;;;29.32;35.29
14242;BME280;7205;50.864;12.766;2023-06-26T11:53:41;97344.44;;;29.36;34.59
14242;BME280;7205;50.864;12.766;2023-06-26T11:56:09;97338.38;;;29.39;34.20
14242;BME280;7205;50.864;12.766;2023-06-26T11:58:36;97334.25;;;29.41;34.09
14242;BME280;7205;50.864;12.766;2023-06-26T12:01:03;97329.63;;;29.42;33.87
14242;BME280;7205;50.864;12.766;2023-06-26T12:03:33;97329.31;;;29.43;33.99
14242;BME280;7205;50.864;12.766;2023-06-26T12:06:00;97327.91;;;29.46;34.39
14242;BME280;7205;50.864;12.766;2023-06-26T12:08:32;97332.25;;;29.47;34.44
14242;BME280;7205;50.864;12.766;2023-06-26T12:11:00;97324.88;;;29.47;34.06
14242;BME280;7205;50.864;12.766;2023-06-26T12:13:29;97332.44;;;29.50;33.84
14242;BME280;7205;50.864;12.766;2023-06-26T12:15:57;97329.41;;;29.52;33.09
14242;BME280;7205;50.864;12.766;2023-06-26T12:18:24;97326.38;;;29.53;33.17
14242;BME280;7205;50.864;12.766;2023-06-26T12:20:51;97327.69;;;29.56;33.10
14242;BME280;7205;50.864;12.766;2023-06-26T12:23:19;97325.97;;;29.60;33.09
14242;BME280;7205;50.864;12.766;2023-06-26T12:25:47;97320.16;;;29.67;32.82
14242;BME280;7205;50.864;12.766;2023-06-26T12:28:17;97324.34;;;29.73;32.52
14242;BME280;7205;50.864;12.766;2023-06-26T12:30:47;97318.31;;;29.76;32.00
14242;BME280;7205;50.864;12.766;2023-06-26T12:33:14;97312.78;;;29.81;32.06
14242;BME280;7205;50.864;12.766;2023-06-26T12:35:42;97322.44;;;29.87;32.26
14242;BME280;7205;50.864;12.766;2023-06-26T12:38:09;97314.66;;;29.94;31.90
14242;BME280;7205;50.864;12.766;2023-06-26T12:40:46;97312.00;;;30.02;31.75
14242;BME280;7205;50.864;12.766;2023-06-26T12:43:23;97304.19;;;30.09;32.42
14242;BME280;7205;50.864;12.766;2023-06-26T12:45:54;97307.78;;;30.18;31.74
14242;BME280;7205;50.864;12.766;2023-06-26T12:48:21;97302.75;;;30.25;31.96
14242;BME280;7205;50.864;12.766;2023-06-26T12:50:47;97309.06;;;30.34;31.84
14242;BME280;7205;50.864;12.766;2023-06-26T12:53:16;97290.66;;;30.40;31.93
14242;BME280;7205;50.864;12.766;2023-06-26T12:55:42;97296.69;;;30.50;30.84
14242;BME280;7205;50.864;12.766;2023-06-26T12:58:11;97285.97;;;30.54;30.88
14242;BME280;7205;50.864;12.766;2023-06-26T13:00:40;97281.66;;;30.61;30.97
14242;BME280;7205;50.864;12.766;2023-06-26T13:03:09;97278.16;;;30.69;30.88
14242;BME280;7205;50.864;12.766;2023-06-26T13:05:37;97281.47;;;30.80;31.55